Time;durP1;ratioP1;P1;durP2;ratioP2;P2;SDS_P1;SDS_P2;PMS_P1;PMS_P2;Temp;Humidity;BMP_temperature;BMP_pressure;BME280_temperature;BME280_humidity;BME280_pressure;Samples;Min_cycle;Max_cycle;Signal;HPM_P1;HPM_P2
2021/06/27 00:01:05;;;;;;;32.22;26.10;;;18.00;91.50;;;;;;5013241;28;20101;-67
2021/06/27 00:03:31;;;;;;;33.83;24.42;;;18.00;91.60;;;;;;5013480;28;20029;-67
2021/06/27 00:05:57;;;;;;;39.10;27.40;;;18.00;91.80;;;;;;5028062;28;20033;-67
2021/06/27 00:08:22;;;;;;;28.30;23.77;;;18.00;91.80;;;;;;5032975;28;20071;-67
2021/06/27 00:10:48;;;;;;;29.17;23.92;;;17.90;91.90;;;;;;5031745;28;20030;-67
2021/06/27 00:13:14;;;;;;;29.42;22.83;;;17.90;92.00;;;;;;5032770;28;20045;-67
2021/06/27 00:15:43;;;;;;;29.95;23.45;;;17.90;92.00;;;;;;5033809;28;20030;-67
2021/06/27 00:18:11;;;;;;;32.33;25.08;;;17.90;92.10;;;;;;5036997;28;20033;-67
2021/06/27 00:20:42;;;;;;;28.63;23.75;;;17.90;92.10;;;;;;5036954;28;20113;-67
2021/06/27 00:23:07;;;;;;;34.20;26.15;;;17.90;92.20;;;;;;5035586;28;20057;-67
2021/06/27 00:25:33;;;;;;;27.92;23.13;;;17.90;92.30;;;;;;5035518;28;20029;-67
2021/06/27 00:27:59;;;;;;;36.00;25.17;;;17.90;92.30;;;;;;5036643;28;20064;-67
2021/06/27 00:30:27;;;;;;;28.08;22.55;;;17.90;92.30;;;;;;5036596;28;20061;-67
2021/06/27 00:32:54;;;;;;;27.63;23.05;;;18.00;92.30;;;;;;5036965;28;20025;-67
2021/06/27 00:35:20;;;;;;;34.80;24.83;;;18.00;92.50;;;;;;5035350;28;20573;-67
2021/06/27 00:37:46;;;;;;;28.85;24.30;;;18.00;92.40;;;;;;5036656;28;20079;-67
2021/06/27 00:40:17;;;;;;;28.70;23.52;;;18.00;92.40;;;;;;5036682;28;20029;-67
2021/06/27 00:42:43;;;;;;;27.70;21.83;;;18.00;92.40;;;;;;5036580;28;20472;-67
2021/06/27 00:45:11;;;;;;;29.40;23.30;;;18.00;92.40;;;;;;5036104;28;20025;-67
2021/06/27 00:47:39;;;;;;;28.33;22.00;;;18.00;92.50;;;;;;5036612;28;20022;-67
2021/06/27 00:50:07;;;;;;;29.65;24.88;;;18.00;92.50;;;;;;5036336;28;20057;-67
2021/06/27 00:52:32;;;;;;;25.63;22.55;;;18.00;92.60;;;;;;5036384;28;20026;-67
2021/06/27 00:54:58;;;;;;;30.30;24.33;;;18.00;92.60;;;;;;5036239;28;20030;-67
2021/06/27 00:57:24;;;;;;;28.10;23.05;;;18.00;92.70;;;;;;5036084;28;20021;-67
2021/06/27 00:59:49;;;;;;;26.67;22.50;;;17.90;92.70;;;;;;5035953;28;20029;-67
2021/06/27 01:02:15;;;;;;;24.80;21.88;;;17.90;92.70;;;;;;5034857;28;20029;-67
2021/06/27 01:04:41;;;;;;;26.98;23.25;;;17.90;92.70;;;;;;5035997;28;20071;-67
2021/06/27 01:07:07;;;;;;;30.65;24.67;;;17.80;92.70;;;;;;5036148;28;20025;-67
2021/06/27 01:09:33;;;;;;;27.50;23.83;;;17.80;92.80;;;;;;5036122;28;20022;-67
2021/06/27 01:12:00;;;;;;;27.40;22.75;;;17.80;92.90;;;;;;5036006;28;20480;-67
2021/06/27 01:14:26;;;;;;;28.42;23.90;;;17.80;93.00;;;;;;5035523;28;20103;-67
2021/06/27 01:16:52;;;;;;;29.35;23.77;;;17.80;93.00;;;;;;5035830;28;20087;-67
2021/06/27 01:19:17;;;;;;;29.63;24.20;;;17.80;93.10;;;;;;5035865;28;20026;-67
2021/06/27 01:21:43;;;;;;;31.20;25.10;;;17.70;93.10;;;;;;5034487;28;20537;-68
2021/06/27 01:24:09;;;;;;;29.75;25.10;;;17.80;93.10;;;;;;5035782;28;20471;-68
2021/06/27 01:26:35;;;;;;;32.38;27.02;;;17.80;93.20;;;;;;5035218;28;20061;-67
2021/06/27 01:29:01;;;;;;;30.20;24.00;;;17.80;93.20;;;;;;5034968;28;20040;-67
2021/06/27 01:31:27;;;;;;;31.77;24.48;;;17.80;93.20;;;;;;5035599;28;20037;-67
2021/06/27 01:33:54;;;;;;;30.17;23.15;;;17.80;93.20;;;;;;5035798;28;20021;-67
2021/06/27 01:36:20;;;;;;;31.17;25.25;;;17.80;93.20;;;;;;5035463;28;20025;-67
2021/06/27 01:38:46;;;;;;;31.77;25.65;;;17.80;93.20;;;;;;5035428;28;20025;-67
2021/06/27 01:41:11;;;;;;;32.53;25.38;;;17.80;93.20;;;;;;5035497;28;20028;-67
2021/06/27 01:43:37;;;;;;;31.45;26.00;;;17.90;93.30;;;;;;5035300;28;20060;-67
2021/06/27 01:46:02;;;;;;;33.40;25.92;;;17.80;93.30;;;;;;5035389;28;20109;-67
2021/06/27 01:48:30;;;;;;;33.03;26.30;;;17.80;93.30;;;;;;5035321;28;20080;-67
2021/06/27 01:50:57;;;;;;;36.47;28.08;;;17.80;93.40;;;;;;5034077;28;20025;-67
2021/06/27 01:53:27;;;;;;;33.17;26.88;;;17.80;93.50;;;;;;5035026;28;20543;-67
2021/06/27 01:56:04;;;;;;;35.75;27.13;;;17.80;93.50;;;;;;5034931;28;20104;-67
2021/06/27 01:58:35;;;;;;;28.50;23.20;;;17.70;93.50;;;;;;5035342;28;20029;-67
2021/06/27 02:01:01;;;;;;;34.67;27.60;;;17.70;93.50;;;;;;5035244;28;20028;-67
2021/06/27 02:03:27;;;;;;;34.75;28.98;;;17.70;93.70;;;;;;5034967;28;20387;-67
2021/06/27 02:05:52;;;;;;;32.90;27.20;;;17.70;93.70;;;;;;5034990;28;20030;-67
2021/06/27 02:08:18;;;;;;;31.73;26.92;;;17.70;93.80;;;;;;5034914;28;20384;-67
2021/06/27 02:10:43;;;;;;;33.08;27.80;;;17.60;93.80;;;;;;5034702;28;20482;-67
2021/06/27 02:13:09;;;;;;;36.33;28.83;;;17.60;93.90;;;;;;5034662;28;20128;-67
2021/06/27 02:15:35;;;;;;;37.22;29.67;;;17.60;93.90;;;;;;5034930;28;20025;-67
2021/06/27 02:18:09;;;;;;;37.35;29.00;;;17.60;94.10;;;;;;5035004;28;20021;-67
2021/06/27 02:20:35;;;;;;;38.33;31.42;;;17.60;94.10;;;;;;5034734;28;20025;-67
2021/06/27 02:23:00;;;;;;;39.95;31.90;;;17.50;94.20;;;;;;5034618;28;20498;-67
2021/06/27 02:25:26;;;;;;;37.65;30.30;;;17.50;94.30;;;;;;5034409;28;20033;-68
2021/06/27 02:27:52;;;;;;;39.40;30.52;;;17.50;94.40;;;;;;5034568;28;20478;-67
2021/06/27 02:30:18;;;;;;;39.22;31.63;;;17.50;94.40;;;;;;5034363;28;20041;-67
2021/06/27 02:32:44;;;;;;;41.63;32.85;;;17.40;94.50;;;;;;5034617;28;20021;-67
2021/06/27 02:35:10;;;;;;;44.47;33.95;;;17.40;94.60;;;;;;5034447;28;20032;-67
2021/06/27 02:37:37;;;;;;;43.58;35.80;;;17.40;94.70;;;;;;5034300;28;20084;-67
2021/06/27 02:40:04;;;;;;;39.50;30.08;;;17.40;94.80;;;;;;5033787;28;20022;-67
2021/06/27 02:42:30;;;;;;;43.42;33.17;;;17.30;94.80;;;;;;5034026;28;20033;-67
2021/06/27 02:44:55;;;;;;;45.33;34.80;;;17.30;94.90;;;;;;5034431;28;20026;-67
2021/06/27 02:47:21;;;;;;;50.20;38.28;;;17.30;95.00;;;;;;5034188;28;20021;-67
2021/06/27 02:49:47;;;;;;;47.40;34.83;;;17.30;95.20;;;;;;5034085;28;20145;-67
2021/06/27 02:52:12;;;;;;;45.75;34.92;;;17.20;95.20;;;;;;5034080;28;20021;-67
2021/06/27 02:54:38;;;;;;;41.10;32.78;;;17.20;95.30;;;;;;5033680;28;20035;-67
2021/06/27 02:57:29;;;;;;;50.13;36.80;;;17.20;95.30;;;;;;5033853;28;20030;-67
2021/06/27 02:59:55;;;;;;;45.40;34.50;;;17.20;95.40;;;;;;5033973;28;20116;-67
2021/06/27 03:02:20;;;;;;;45.13;36.05;;;17.10;95.50;;;;;;5033854;28;20105;-67
2021/06/27 03:04:46;;;;;;;52.65;40.45;;;17.10;95.50;;;;;;5032610;28;20041;-67
2021/06/27 03:07:11;;;;;;;48.50;38.67;;;17.10;95.70;;;;;;5033616;28;20032;-67
2021/06/27 03:09:37;;;;;;;51.40;39.05;;;17.10;95.80;;;;;;5033824;28;20583;-67
2021/06/27 03:12:03;;;;;;;49.00;38.65;;;17.10;95.90;;;;;;5033971;28;20021;-67
2021/06/27 03:14:28;;;;;;;52.17;39.45;;;17.10;95.90;;;;;;5033512;28;20545;-67
2021/06/27 03:16:55;;;;;;;47.45;36.80;;;17.00;95.90;;;;;;5033634;28;20045;-67
2021/06/27 03:19:20;;;;;;;50.58;38.92;;;17.00;96.00;;;;;;5033614;28;20025;-67
2021/06/27 03:21:46;;;;;;;50.50;39.45;;;16.90;96.00;;;;;;5033263;28;20036;-67
2021/06/27 03:24:12;;;;;;;53.05;39.80;;;17.00;96.10;;;;;;5032306;28;20024;-67
2021/06/27 03:26:38;;;;;;;49.65;36.90;;;16.90;96.20;;;;;;5033432;28;20033;-67
2021/06/27 03:29:04;;;;;;;58.05;43.47;;;16.90;96.20;;;;;;5033623;28;20387;-67
2021/06/27 03:31:29;;;;;;;52.70;40.50;;;16.90;96.40;;;;;;5033502;28;20075;-67
2021/06/27 03:33:55;;;;;;;56.72;41.22;;;16.90;96.70;;;;;;5033684;28;20040;-67
2021/06/27 03:36:20;;;;;;;55.95;41.33;;;16.90;96.40;;;;;;5033281;28;20029;-67
2021/06/27 03:39:04;;;;;;;60.47;42.67;;;16.90;96.50;;;;;;5033261;28;20029;-67
2021/06/27 03:41:42;;;;;;;48.58;36.47;;;16.90;96.50;;;;;;5033496;28;20040;-67
2021/06/27 03:44:08;;;;;;;57.60;41.63;;;16.80;96.50;;;;;;5033610;28;20104;-67
2021/06/27 03:46:33;;;;;;;58.50;41.47;;;16.80;96.60;;;;;;5033186;28;20534;-67
2021/06/27 03:48:59;;;;;;;59.33;44.58;;;16.80;96.60;;;;;;5033088;28;20040;-67
2021/06/27 03:51:25;;;;;;;59.17;44.03;;;16.90;96.80;;;;;;5032476;28;20026;-67
2021/06/27 03:53:51;;;;;;;50.85;39.05;;;16.80;96.70;;;;;;5014970;28;20037;-67
2021/06/27 03:56:18;;;;;;;56.38;39.25;;;16.80;96.80;;;;;;5013384;28;20030;-67
2021/06/27 03:58:45;;;;;;;54.83;42.47;;;16.80;96.80;;;;;;5013406;28;20032;-67
2021/06/27 04:01:10;;;;;;;53.55;40.83;;;16.90;96.90;;;;;;5013407;28;20026;-67
2021/06/27 04:03:36;;;;;;;57.45;42.17;;;16.90;96.90;;;;;;5013207;28;20022;-67
2021/06/27 04:06:03;;;;;;;53.78;42.03;;;16.90;96.90;;;;;;5013283;28;20064;-67
2021/06/27 04:08:29;;;;;;;58.60;43.72;;;16.90;96.90;;;;;;5013341;28;20029;-67
2021/06/27 04:10:58;;;;;;;54.35;41.55;;;16.90;96.90;;;;;;5013343;28;20022;-67
2021/06/27 04:13:25;;;;;;;58.20;42.75;;;16.90;96.90;;;;;;5016607;28;20056;-67
2021/06/27 04:15:50;;;;;;;60.67;44.05;;;17.00;96.90;;;;;;5032807;28;20491;-67
2021/06/27 04:18:16;;;;;;;54.30;41.97;;;17.00;96.90;;;;;;5032692;28;20024;-67
2021/06/27 04:20:41;;;;;;;54.45;40.97;;;17.00;96.90;;;;;;5032971;28;20105;-67
2021/06/27 04:23:07;;;;;;;58.88;41.85;;;17.10;96.90;;;;;;5033089;28;20034;-67
2021/06/27 04:25:33;;;;;;;50.92;38.63;;;17.10;96.90;;;;;;5032984;28;20025;-67
2021/06/27 04:27:59;;;;;;;57.75;41.70;;;17.10;96.90;;;;;;5033023;28;20048;-67
2021/06/27 04:30:25;;;;;;;53.72;39.85;;;17.20;96.90;;;;;;5032773;28;20472;-67
2021/06/27 04:32:50;;;;;;;61.63;45.72;;;17.20;96.80;;;;;;5032711;28;20025;-67
2021/06/27 04:35:16;;;;;;;59.10;43.70;;;17.40;96.80;;;;;;5032783;28;20053;-67
2021/06/27 04:37:41;;;;;;;52.30;39.00;;;17.40;96.70;;;;;;5032423;28;20026;-67
2021/06/27 04:40:07;;;;;;;51.00;39.08;;;17.60;96.60;;;;;;5031675;28;20391;-67
2021/06/27 04:42:32;;;;;;;54.10;40.10;;;17.60;96.50;;;;;;5032747;28;20021;-67
2021/06/27 04:44:59;;;;;;;48.33;36.40;;;17.70;96.30;;;;;;5032751;28;20387;-67
2021/06/27 04:47:25;;;;;;;47.25;38.33;;;17.90;96.20;;;;;;5032714;28;20025;-67
2021/06/27 04:49:51;;;;;;;53.13;39.10;;;17.90;96.10;;;;;;5032567;28;20033;-67
2021/06/27 04:52:16;;;;;;;49.13;38.45;;;18.00;95.90;;;;;;5015955;28;20026;-67
2021/06/27 04:54:42;;;;;;;52.42;38.42;;;18.10;95.80;;;;;;5012946;28;20045;-67
2021/06/27 04:57:07;;;;;;;43.08;34.50;;;18.10;95.60;;;;;;5012924;28;20034;-67
2021/06/27 04:59:33;;;;;;;41.50;33.22;;;18.20;95.60;;;;;;5018067;28;20044;-67
2021/06/27 05:01:59;;;;;;;44.90;35.22;;;18.30;95.50;;;;;;5033985;28;20480;-67
2021/06/27 05:04:24;;;;;;;43.03;35.10;;;18.40;95.40;;;;;;5035921;28;20472;-67
2021/06/27 05:06:50;;;;;;;44.40;34.05;;;18.40;95.30;;;;;;5036234;28;20049;-67
2021/06/27 05:09:15;;;;;;;48.63;37.90;;;18.50;95.20;;;;;;5036054;28;20030;-67
2021/06/27 05:11:41;;;;;;;51.10;39.22;;;18.50;94.90;;;;;;5036156;28;20100;-67
2021/06/27 05:14:06;;;;;;;41.47;32.78;;;18.50;94.90;;;;;;5035545;28;20049;-67
2021/06/27 05:16:32;;;;;;;49.88;37.45;;;18.60;94.90;;;;;;5035835;28;20167;-67
2021/06/27 05:18:58;;;;;;;48.70;37.25;;;18.60;94.70;;;;;;5035735;28;20045;-67
2021/06/27 05:21:23;;;;;;;41.85;33.00;;;18.60;94.60;;;;;;5036056;28;20130;-67
2021/06/27 05:23:49;;;;;;;41.75;34.70;;;18.70;94.60;;;;;;5035995;28;20025;-67
2021/06/27 05:26:15;;;;;;;42.80;33.58;;;18.70;94.50;;;;;;5035793;28;20147;-67
2021/06/27 05:28:40;;;;;;;38.50;30.63;;;18.80;94.50;;;;;;5035706;28;20030;-67
2021/06/27 05:31:06;;;;;;;41.30;32.53;;;19.00;94.50;;;;;;5036159;28;20100;-67
2021/06/27 05:33:31;;;;;;;44.28;33.55;;;19.30;94.30;;;;;;5035936;28;20111;-67
2021/06/27 05:35:57;;;;;;;36.03;31.23;;;19.50;93.50;;;;;;5035960;28;20030;-67
2021/06/27 05:38:23;;;;;;;37.88;31.30;;;19.60;93.30;;;;;;5035720;28;20021;-67
2021/06/27 05:40:48;;;;;;;32.33;27.52;;;19.80;93.10;;;;;;5035496;28;20048;-67
2021/06/27 05:43:14;;;;;;;32.67;25.80;;;19.90;92.90;;;;;;5035432;28;20026;-67
2021/06/27 05:45:39;;;;;;;35.30;28.45;;;20.20;92.60;;;;;;5035454;28;20029;-67
2021/06/27 05:48:05;;;;;;;30.20;25.55;;;20.40;92.20;;;;;;5035282;28;20030;-67
2021/06/27 05:50:31;;;;;;;34.83;29.25;;;20.70;91.90;;;;;;5035008;28;20030;-67
2021/06/27 05:52:56;;;;;;;36.30;27.67;;;21.00;90.80;;;;;;5035260;28;20391;-67
2021/06/27 05:55:22;;;;;;;33.92;28.95;;;21.00;90.40;;;;;;5035326;28;20479;-67
2021/06/27 05:57:47;;;;;;;35.35;29.00;;;20.90;89.60;;;;;;5035336;28;20025;-67
2021/06/27 06:00:13;;;;;;;31.52;26.52;;;20.90;89.40;;;;;;5035209;28;20028;-67
2021/06/27 06:02:39;;;;;;;31.55;26.55;;;20.80;89.80;;;;;;5034899;28;20475;-67
2021/06/27 06:05:05;;;;;;;32.95;26.40;;;20.70;89.60;;;;;;5034945;28;20384;-67
2021/06/27 06:07:30;;;;;;;29.50;24.50;;;20.60;89.90;;;;;;5034993;28;20021;-67
2021/06/27 06:09:56;;;;;;;32.88;27.25;;;20.50;90.00;;;;;;5034934;28;20365;-67
2021/06/27 06:12:21;;;;;;;31.95;26.08;;;20.40;90.10;;;;;;5034737;28;20049;-67
2021/06/27 06:14:47;;;;;;;30.45;25.00;;;20.40;90.10;;;;;;5034109;28;20029;-67
2021/06/27 06:17:13;;;;;;;29.75;24.77;;;20.40;90.20;;;;;;5034775;28;20034;-67
2021/06/27 06:19:40;;;;;;;31.95;27.50;;;20.50;90.20;;;;;;5034584;28;20388;-67
2021/06/27 06:22:06;;;;;;;30.45;25.27;;;20.60;90.00;;;;;;5034930;28;20021;-67
2021/06/27 06:24:31;;;;;;;28.05;22.95;;;20.70;90.00;;;;;;5034729;28;20520;-67
2021/06/27 06:26:57;;;;;;;31.02;26.30;;;20.90;89.70;;;;;;5034502;28;20052;-67
2021/06/27 06:29:22;;;;;;;31.73;27.15;;;21.00;88.50;;;;;;5034484;28;20387;-67
2021/06/27 06:31:48;;;;;;;30.83;25.98;;;21.00;88.50;;;;;;5033220;28;20434;-67
2021/06/27 06:34:14;;;;;;;28.90;23.80;;;21.00;88.00;;;;;;5034325;28;20064;-67
2021/06/27 06:36:39;;;;;;;29.50;24.90;;;21.00;88.40;;;;;;5034300;28;20022;-67
2021/06/27 06:39:05;;;;;;;32.08;27.55;;;21.10;87.90;;;;;;5034343;28;20096;-67
2021/06/27 06:41:31;;;;;;;30.13;22.80;;;21.20;87.60;;;;;;5034320;28;20044;-67
2021/06/27 06:43:56;;;;;;;27.02;24.13;;;21.30;87.60;;;;;;5034126;28;20472;-67
2021/06/27 06:46:22;;;;;;;27.05;23.30;;;21.30;87.00;;;;;;5034291;28;20117;-67
2021/06/27 06:48:47;;;;;;;29.35;24.33;;;21.40;87.20;;;;;;5033552;28;20134;-67
2021/06/27 06:51:16;;;;;;;27.80;24.13;;;21.50;86.90;;;;;;5032820;28;20021;-67
2021/06/27 06:53:41;;;;;;;26.20;22.70;;;21.60;86.80;;;;;;5034140;28;20095;-67
2021/06/27 06:56:07;;;;;;;27.73;23.42;;;21.60;86.00;;;;;;5034055;28;20423;-67
2021/06/27 06:58:35;;;;;;;27.60;21.85;;;21.50;85.00;;;;;;5034004;28;20053;-67
2021/06/27 07:01:00;;;;;;;25.48;21.85;;;21.50;85.40;;;;;;5034100;28;20021;-67
2021/06/27 07:03:27;;;;;;;24.85;22.05;;;21.50;85.40;;;;;;5033612;28;20040;-68
2021/06/27 07:05:53;;;;;;;24.92;21.88;;;21.50;85.40;;;;;;5033936;28;20108;-67
2021/06/27 07:08:19;;;;;;;23.90;21.27;;;21.50;85.30;;;;;;5033775;28;20033;-67
2021/06/27 07:10:44;;;;;;;24.40;20.42;;;21.50;85.70;;;;;;5033791;28;20022;-67
2021/06/27 07:13:10;;;;;;;28.20;22.05;;;21.60;85.80;;;;;;5033716;28;20083;-67
2021/06/27 07:15:35;;;;;;;26.58;23.33;;;21.70;85.70;;;;;;5033445;28;20029;-67
2021/06/27 07:18:01;;;;;;;26.02;23.17;;;21.70;85.50;;;;;;5033601;28;20505;-67
2021/06/27 07:20:26;;;;;;;26.35;23.52;;;21.80;85.30;;;;;;5033923;28;20068;-67
2021/06/27 07:22:52;;;;;;;25.63;21.52;;;21.70;85.10;;;;;;5033801;28;20036;-67
2021/06/27 07:25:17;;;;;;;22.42;20.00;;;21.80;85.00;;;;;;5033509;28;20037;-67
2021/06/27 07:27:43;;;;;;;26.15;22.33;;;21.80;85.10;;;;;;5033315;28;20083;-67
2021/06/27 07:30:09;;;;;;;28.90;22.55;;;21.90;85.20;;;;;;5033562;28;20076;-67
2021/06/27 07:32:35;;;;;;;25.35;22.70;;;22.00;85.40;;;;;;5033282;28;20029;-67
2021/06/27 07:35:01;;;;;;;27.98;22.60;;;22.20;84.90;;;;;;5033351;28;20163;-67
2021/06/27 07:37:27;;;;;;;21.88;19.58;;;22.30;84.80;;;;;;5033584;28;20022;-67
2021/06/27 07:39:52;;;;;;;24.50;21.80;;;22.50;84.40;;;;;;5033279;28;20053;-67
2021/06/27 07:42:17;;;;;;;22.92;20.30;;;22.60;83.30;;;;;;5032087;28;20088;-67
2021/06/27 07:44:43;;;;;;;24.52;21.60;;;22.60;82.20;;;;;;5033391;28;20029;-67
2021/06/27 07:47:09;;;;;;;25.33;21.30;;;22.60;82.10;;;;;;5024566;28;20026;-67
2021/06/27 07:49:34;;;;;;;22.67;20.15;;;22.50;81.30;;;;;;5032923;28;20120;-67
2021/06/27 07:52:00;;;;;;;21.08;18.17;;;22.50;81.30;;;;;;5033217;28;20060;-67
2021/06/27 07:54:25;;;;;;;19.75;17.60;;;22.50;81.40;;;;;;5033618;28;20033;-67
2021/06/27 07:56:51;;;;;;;20.90;18.13;;;22.50;81.30;;;;;;5032953;28;20052;-67
2021/06/27 07:59:16;;;;;;;19.83;17.60;;;22.60;81.10;;;;;;5032908;28;20026;-67
2021/06/27 08:01:42;;;;;;;20.83;17.00;;;22.60;81.10;;;;;;5033023;28;20027;-67
2021/06/27 08:04:08;;;;;;;19.17;16.63;;;22.60;81.30;;;;;;5031627;28;20053;-67
2021/06/27 08:06:33;;;;;;;19.13;17.13;;;22.70;81.10;;;;;;5033216;28;20080;-67
2021/06/27 08:08:59;;;;;;;21.10;18.33;;;22.70;80.60;;;;;;5033128;28;20447;-67
2021/06/27 08:11:27;;;;;;;19.80;17.67;;;22.60;80.50;;;;;;5032952;28;20543;-67
2021/06/27 08:13:52;;;;;;;19.75;17.50;;;22.70;80.60;;;;;;5032770;28;20451;-67
2021/06/27 08:16:18;;;;;;;20.42;18.30;;;22.70;80.90;;;;;;5031670;28;20025;-67
2021/06/27 08:18:43;;;;;;;21.10;17.67;;;22.80;80.70;;;;;;5032482;28;20411;-67
2021/06/27 08:21:09;;;;;;;23.70;21.15;;;22.80;80.30;;;;;;5033400;28;20029;-67
2021/06/27 08:23:35;;;;;;;19.77;17.42;;;22.80;80.30;;;;;;5033229;28;20372;-67
2021/06/27 08:26:00;;;;;;;23.42;20.48;;;22.90;80.80;;;;;;5032862;28;20416;-67
2021/06/27 08:28:26;;;;;;;20.48;18.35;;;22.90;80.30;;;;;;5032791;28;20025;-67
2021/06/27 08:30:51;;;;;;;21.65;18.95;;;23.00;80.50;;;;;;5032951;28;20032;-67
2021/06/27 08:33:17;;;;;;;20.02;17.50;;;23.00;80.50;;;;;;5032721;28;20109;-67
2021/06/27 08:35:42;;;;;;;23.35;19.17;;;23.10;80.10;;;;;;5032678;28;20100;-67
2021/06/27 08:38:08;;;;;;;18.15;16.25;;;23.20;79.80;;;;;;5036082;28;20482;-67
2021/06/27 08:40:35;;;;;;;22.13;19.67;;;23.30;80.20;;;;;;5035390;28;20029;-67
2021/06/27 08:43:10;;;;;;;19.40;17.38;;;23.50;78.90;;;;;;5036649;28;20021;-67
2021/06/27 08:45:58;;;;;;;25.25;18.60;;;23.60;78.90;;;;;;5029146;28;20026;-67
2021/06/27 08:48:24;;;;;;;18.90;16.50;;;23.80;78.00;;;;;;5028233;28;20027;-67
2021/06/27 08:50:52;;;;;;;17.50;15.55;;;23.90;78.10;;;;;;5036241;28;20044;-67
2021/06/27 08:53:18;;;;;;;18.48;16.20;;;24.00;77.90;;;;;;5036518;28;20029;-67
2021/06/27 08:55:44;;;;;;;22.15;18.50;;;24.20;76.90;;;;;;5036278;28;20037;-67
2021/06/27 08:58:10;;;;;;;19.48;17.08;;;24.30;76.60;;;;;;5036289;28;20567;-67
2021/06/27 09:00:37;;;;;;;18.42;16.55;;;24.50;76.10;;;;;;5035923;28;20032;-67
2021/06/27 09:03:07;;;;;;;19.70;17.48;;;24.40;74.90;;;;;;5036089;28;20025;-67
2021/06/27 09:05:33;;;;;;;16.85;15.07;;;24.50;74.80;;;;;;5036108;28;20531;-67
2021/06/27 09:08:16;;;;;;;19.25;16.45;;;24.40;74.70;;;;;;5036187;28;20029;-67
2021/06/27 09:10:41;;;;;;;;;;;24.40;75.30;;;;;;5036457;28;20026;-67
2021/06/27 09:13:07;;;;;;;18.52;15.93;;;24.50;75.40;;;;;;5035679;28;19927;-67
2021/06/27 09:15:41;;;;;;;17.70;15.80;;;24.50;74.30;;;;;;5035910;28;20029;-67
2021/06/27 09:18:25;;;;;;;18.98;17.00;;;24.50;73.80;;;;;;5036026;28;20423;-67
2021/06/27 09:20:53;;;;;;;19.40;17.40;;;24.50;74.50;;;;;;5035860;28;20022;-67
2021/06/27 09:23:36;;;;;;;19.38;16.73;;;24.60;74.30;;;;;;5035829;28;20471;-67
2021/06/27 09:26:02;;;;;;;19.25;17.17;;;24.60;74.50;;;;;;5036139;28;20147;-67
2021/06/27 09:28:41;;;;;;;15.50;13.90;;;24.60;73.60;;;;;;5035748;28;20116;-67
2021/06/27 09:31:06;;;;;;;15.77;13.30;;;24.70;74.20;;;;;;5035780;28;20072;-67
2021/06/27 09:33:32;;;;;;;16.27;14.60;;;24.80;74.10;;;;;;5035676;28;20388;-67
2021/06/27 09:36:04;;;;;;;18.17;14.73;;;24.80;74.20;;;;;;5035326;28;20112;-67
2021/06/27 09:38:37;;;;;;;16.27;14.57;;;24.90;75.20;;;;;;5034327;28;20395;-67
2021/06/27 09:41:16;;;;;;;16.45;14.77;;;25.00;74.60;;;;;;5035551;28;20025;-67
2021/06/27 09:43:50;;;;;;;18.25;14.18;;;25.10;74.10;;;;;;5035037;28;20024;-67
2021/06/27 09:46:16;;;;;;;15.50;13.63;;;25.10;73.60;;;;;;5035509;28;20025;-67
2021/06/27 09:48:48;;;;;;;14.52;13.07;;;25.20;73.90;;;;;;5034029;28;20036;-68
2021/06/27 09:51:15;;;;;;;17.02;15.23;;;25.30;73.60;;;;;;5035469;28;20029;-67
2021/06/27 09:53:41;;;;;;;16.35;14.73;;;25.30;73.40;;;;;;5035328;28;20026;-67
2021/06/27 09:56:08;;;;;;;17.95;16.13;;;25.40;73.20;;;;;;5035420;28;20036;-67
2021/06/27 09:58:35;;;;;;;19.00;16.77;;;25.30;73.20;;;;;;5035225;28;20022;-67
2021/06/27 10:01:01;;;;;;;17.92;16.13;;;25.20;74.10;;;;;;5034082;28;20025;-67
2021/06/27 10:03:28;;;;;;;16.52;14.77;;;25.30;73.90;;;;;;5034956;28;20091;-67
2021/06/27 10:06:07;;;;;;;20.15;18.15;;;25.40;73.50;;;;;;5033823;28;20032;-67
2021/06/27 10:08:33;;;;;;;19.73;17.08;;;25.40;73.40;;;;;;5035326;28;20025;-67
2021/06/27 10:11:07;;;;;;;22.58;19.77;;;25.40;73.00;;;;;;5035023;28;20022;-67
2021/06/27 10:13:33;;;;;;;20.42;17.33;;;25.30;73.40;;;;;;5034717;28;20483;-68
2021/06/27 10:15:59;;;;;;;20.80;17.33;;;25.30;73.70;;;;;;5034646;28;20084;-67
2021/06/27 10:18:25;;;;;;;17.95;16.00;;;25.50;73.90;;;;;;5035086;28;20081;-67
2021/06/27 10:20:51;;;;;;;18.45;16.42;;;25.50;73.60;;;;;;5034835;28;20022;-67
2021/06/27 10:23:17;;;;;;;14.60;13.10;;;25.60;73.50;;;;;;5034933;28;20426;-67
2021/06/27 10:25:43;;;;;;;15.68;14.07;;;25.80;73.00;;;;;;5034632;28;20029;-67
2021/06/27 10:28:09;;;;;;;18.90;16.85;;;26.00;72.40;;;;;;5034543;28;20402;-67
2021/06/27 10:30:34;;;;;;;17.92;16.05;;;26.10;72.00;;;;;;5033233;28;20025;-67
2021/06/27 10:33:01;;;;;;;16.60;14.88;;;26.30;71.40;;;;;;5034466;28;20013;-66
2021/06/27 10:35:26;;;;;;;16.10;14.35;;;26.50;70.80;;;;;;5034533;28;20034;-67
2021/06/27 10:37:53;;;;;;;19.15;17.10;;;26.60;70.70;;;;;;5034349;28;20021;-67
2021/06/27 10:40:19;;;;;;;16.00;14.30;;;26.70;69.70;;;;;;5034309;28;20029;-67
2021/06/27 10:42:56;;;;;;;17.90;16.00;;;26.80;69.40;;;;;;5027962;28;20022;-67
2021/06/27 10:45:21;;;;;;;17.45;15.65;;;26.80;69.20;;;;;;5014788;28;20417;-67
2021/06/27 10:47:47;;;;;;;17.55;15.27;;;26.70;68.20;;;;;;5029760;28;20061;-67
2021/06/27 10:50:15;;;;;;;16.90;15.00;;;26.70;68.00;;;;;;5034275;28;20064;-67
2021/06/27 10:52:58;;;;;;;18.70;16.75;;;26.70;68.10;;;;;;5034214;28;20030;-67
2021/06/27 10:55:41;;;;;;;15.55;12.90;;;26.80;67.90;;;;;;5032554;28;20365;-67
2021/06/27 10:58:14;;;;;;;17.58;15.48;;;26.90;68.30;;;;;;5034087;28;20051;-68
2021/06/27 11:00:59;;;;;;;15.95;14.27;;;27.00;67.80;;;;;;5033840;28;20098;-67
2021/06/27 11:03:35;;;;;;;15.05;13.65;;;27.00;67.20;;;;;;5033912;28;20104;-67
2021/06/27 11:06:06;;;;;;;15.20;13.32;;;27.20;67.50;;;;;;5033767;28;20025;-67
2021/06/27 11:08:42;;;;;;;14.33;12.60;;;27.30;66.30;;;;;;5034133;28;20398;-68
2021/06/27 11:11:11;;;;;;;13.00;11.30;;;27.30;65.60;;;;;;5033843;28;20264;-67
2021/06/27 11:13:38;;;;;;;16.20;14.60;;;27.10;65.90;;;;;;5033542;28;20525;-67
2021/06/27 11:16:15;;;;;;;13.73;12.38;;;27.20;65.90;;;;;;5033693;28;20044;-67
2021/06/27 11:18:47;;;;;;;14.20;12.65;;;27.10;65.30;;;;;;5032239;28;20025;-67
2021/06/27 11:21:15;;;;;;;11.65;10.45;;;27.20;65.70;;;;;;5034298;28;20052;-67
2021/06/27 11:23:46;;;;;;;10.50;9.50;;;27.30;65.00;;;;;;5033937;28;20029;-67
2021/06/27 11:26:54;;;;;;;12.65;11.35;;;27.40;64.80;;;;;;5033958;28;20025;-67
2021/06/27 11:29:26;;;;;;;11.10;9.93;;;27.50;63.90;;;;;;5033447;28;20041;-67
2021/06/27 11:32:03;;;;;;;10.95;8.75;;;27.50;63.30;;;;;;5033410;28;20109;-67
2021/06/27 11:34:31;;;;;;;10.13;9.13;;;27.50;62.80;;;;;;5033918;28;20452;-67
2021/06/27 11:37:17;;;;;;;11.50;8.93;;;27.60;63.10;;;;;;5032033;28;20033;-67
2021/06/27 11:39:48;;;;;;;10.15;9.15;;;27.90;63.00;;;;;;5033266;28;20052;-67
2021/06/27 11:42:23;;;;;;;9.98;8.57;;;27.90;61.20;;;;;;5031865;28;20387;-67
2021/06/27 11:45:15;;;;;;;9.18;8.30;;;27.90;61.90;;;;;;5033389;28;20462;-67
2021/06/27 11:47:56;;;;;;;8.40;7.55;;;27.90;62.40;;;;;;5032929;28;20472;-67
2021/06/27 11:50:27;;;;;;;6.67;6.07;;;27.90;61.00;;;;;;5033403;28;20060;-68
2021/06/27 11:53:03;;;;;;;6.88;6.18;;;27.90;60.70;;;;;;5033129;28;20087;-67
2021/06/27 11:55:33;;;;;;;9.25;8.35;;;27.90;60.40;;;;;;5033303;28;20029;-67
2021/06/27 11:58:00;;;;;;;10.25;7.47;;;27.90;60.00;;;;;;5033329;28;20021;-67
2021/06/27 12:00:44;;;;;;;8.63;7.72;;;27.70;60.60;;;;;;5032976;28;20029;-67
2021/06/27 12:03:16;;;;;;;9.52;7.50;;;27.80;61.00;;;;;;5033150;28;20048;-67
2021/06/27 12:06:03;;;;;;;7.25;6.55;;;27.80;61.70;;;;;;5033229;28;20026;-67
2021/06/27 12:08:29;;;;;;;5.10;4.70;;;27.90;61.30;;;;;;5033139;28;20033;-67
2021/06/27 12:10:57;;;;;;;5.93;5.32;;;28.00;60.30;;;;;;5032967;28;20492;-68
2021/06/27 12:13:25;;;;;;;5.95;5.35;;;28.00;58.60;;;;;;5037067;28;20403;-67
2021/06/27 12:15:53;;;;;;;6.53;5.90;;;28.00;58.30;;;;;;5037002;28;20033;-67
2021/06/27 12:18:37;;;;;;;7.10;5.90;;;27.90;57.60;;;;;;5037160;28;20029;-67
2021/06/27 12:21:13;;;;;;;5.05;4.55;;;27.80;58.70;;;;;;5036982;28;20387;-67
2021/06/27 12:23:44;;;;;;;4.97;4.00;;;27.90;57.90;;;;;;5037039;28;20108;-67
2021/06/27 12:26:16;;;;;;;4.17;3.87;;;27.70;56.60;;;;;;5037006;28;20557;-67
2021/06/27 12:28:47;;;;;;;4.80;4.10;;;27.60;56.80;;;;;;5036852;28;20267;-68
2021/06/27 12:31:27;;;;;;;4.30;3.90;;;27.70;57.00;;;;;;5036890;28;20022;-67